Time,TemperatureF,DewpointF,PressureIn,WindDirection,WindDirectionDegrees,WindSpeedMPH,WindSpeedGustMPH,Humidity,HourlyPrecipIn,Conditions,Clouds,dailyrainin,SoftwareType,DateUTC
2013-03-30 00:02:00,47.0,41.0,30.27,North,3,0.0,1.0,81,0.00,,,0.00,weatherlink.com 1.10,2013-03-30 04:02:00,
2013-03-30 00:17:00,46.9,42.0,30.27,North,4,0.0,0.0,83,0.00,,,0.00,weatherlink.com 1.10,2013-03-30 04:17:00,
2013-03-30 00:32:00,48.5,44.0,30.27,WSW,245,0.0,1.0,83,0.00,,,0.00,weatherlink.com 1.10,2013-03-30 04:32:00,
2013-03-30 00:47:00,49.6,44.0,30.27,WSW,246,0.0,1.0,81,0.00,,,0.00,weatherlink.com 1.10,2013-03-30 04:47:00,
2013-03-30 01:02:00,49.9,44.0,30.26,WSW,246,0.0,0.0,81,0.00,,,0.00,weatherlink.com 1.10,2013-03-30 05:02:00,
2013-03-30 01:17:00,49.5,44.0,30.26,WSW,246,0.0,1.0,81,0.00,,,0.00,weatherlink.com 1.10,2013-03-30 05:17:00,
2013-03-30 01:32:00,48.7,43.0,30.26,WSW,246,0.0,0.0,82,0.00,,,0.00,weatherlink.com 1.10,2013-03-30 05:32:00,
2013-03-30 01:47:00,48.4,44.0,30.25,WSW,246,0.0,0.0,84,0.00,,,0.00,weatherlink.com 1.10,2013-03-30 05:47:00,
2013-03-30 02:18:00,48.1,44.0,30.25,WSW,246,0.0,0.0,86,0.00,,,0.00,weatherlink.com 1.10,2013-03-30 06:18:00,
2013-03-30 02:33:00,47.8,44.0,30.25,WSW,246,0.0,1.0,87,0.00,,,0.00,weatherlink.com 1.10,2013-03-30 06:33:00,
2013-03-30 02:48:00,47.4,44.0,30.25,WSW,246,0.0,0.0,87,0.00,,,0.00,weatherlink.com 1.10,2013-03-30 06:48:00,
2013-03-30 03:03:00,47.1,44.0,30.24,WSW,246,0.0,0.0,88,0.00,,,0.00,weatherlink.com 1.10,2013-03-30 07:03:00,
2013-03-30 03:18:00,46.7,44.0,30.23,WSW,245,0.0,1.0,89,0.00,,,0.00,weatherlink.com 1.10,2013-03-30 07:18:00,
2013-03-30 03:33:00,46.3,43.0,30.23,WSW,245,0.0,0.0,89,0.00,,,0.00,weatherlink.com 1.10,2013-03-30 07:33:00,
2013-03-30 03:48:00,46.0,43.0,30.23,WSW,245,0.0,0.0,90,0.00,,,0.00,weatherlink.com 1.10,2013-03-30 07:48:00,
2013-03-30 04:03:00,45.7,43.0,30.22,WSW,245,0.0,0.0,90,0.00,,,0.00,weatherlink.com 1.10,2013-03-30 08:03:00,
2013-03-30 04:18:00,45.3,43.0,30.22,WSW,245,0.0,0.0,91,0.00,,,0.00,weatherlink.com 1.10,2013-03-30 08:18:00,
2013-03-30 04:33:00,45.1,43.0,30.22,WSW,244,0.0,0.0,92,0.00,,,0.00,weatherlink.com 1.10,2013-03-30 08:33:00,
2013-03-30 04:48:00,44.9,43.0,30.22,WSW,245,0.0,0.0,92,0.00,,,0.00,weatherlink.com 1.10,2013-03-30 08:48:00,
2013-03-30 05:03:00,44.8,43.0,30.22,WSW,245,0.0,0.0,92,0.00,,,0.00,weatherlink.com 1.10,2013-03-30 09:03:00,
2013-03-30 05:18:00,44.7,43.0,30.22,WSW,245,0.0,0.0,93,0.00,,,0.00,weatherlink.com 1.10,2013-03-30 09:18:00,
2013-03-30 05:48:00,45.2,44.0,30.23,WSW,245,0.0,1.0,94,0.00,,,0.00,weatherlink.com 1.10,2013-03-30 09:48:00,
2013-03-30 06:03:00,45.5,44.0,30.23,WSW,245,0.0,0.0,93,0.00,,,0.00,weatherlink.com 1.10,2013-03-30 10:03:00,
2013-03-30 06:18:00,45.6,44.0,30.25,WSW,245,0.0,1.0,93,0.00,,,0.00,weatherlink.com 1.10,2013-03-30 10:18:00,
2013-03-30 06:33:00,45.8,44.0,30.25,WSW,246,1.0,1.0,93,0.00,,,0.00,weatherlink.com 1.10,2013-03-30 10:33:00,
2013-03-30 06:48:00,46.1,44.0,30.25,WSW,246,0.0,1.0,93,0.00,,,0.00,weatherlink.com 1.10,2013-03-30 10:48:00,
2013-03-30 07:03:00,46.3,44.0,30.25,WSW,246,0.0,1.0,93,0.00,,,0.00,weatherlink.com 1.10,2013-03-30 11:03:00,
2013-03-30 07:18:00,46.6,45.0,30.25,WSW,246,0.0,0.0,93,0.00,,,0.00,weatherlink.com 1.10,2013-03-30 11:18:00,
2013-03-30 07:33:00,46.6,45.0,30.25,WSW,246,0.0,0.0,93,0.00,,,0.00,weatherlink.com 1.10,2013-03-30 11:33:00,
2013-03-30 07:48:00,46.7,45.0,30.25,WSW,246,0.0,0.0,93,0.00,,,0.00,weatherlink.com 1.10,2013-03-30 11:48:00,
2013-03-30 08:03:00,46.9,45.0,30.25,WSW,246,0.0,0.0,93,0.00,,,0.00,weatherlink.com 1.10,2013-03-30 12:03:00,
2013-03-30 08:18:00,47.9,46.0,30.25,East,101,0.0,1.0,93,0.00,,,0.00,weatherlink.com 1.10,2013-03-30 12:18:00,
2013-03-30 08:33:00,49.1,47.0,30.24,East,87,0.0,2.0,92,0.00,,,0.00,weatherlink.com 1.10,2013-03-30 12:33:00,
2013-03-30 08:48:00,51.2,48.0,30.24,ENE,75,0.0,3.0,89,0.00,,,0.00,weatherlink.com 1.10,2013-03-30 12:48:00,
2013-03-30 09:03:00,53.3,49.0,30.23,ENE,78,1.0,5.0,85,0.00,,,0.00,weatherlink.com 1.10,2013-03-30 13:03:00,
2013-03-30 09:18:00,55.1,48.0,30.23,ENE,76,1.0,8.0,78,0.00,,,0.00,weatherlink.com 1.10,2013-03-30 13:18:00,
2013-03-30 09:33:00,55.9,48.0,30.24,East,92,1.0,7.0,74,0.00,,,0.00,weatherlink.com 1.10,2013-03-30 13:33:00,
2013-03-30 09:48:00,55.8,48.0,30.24,ESE,109,4.0,8.0,74,0.00,,,0.00,weatherlink.com 1.10,2013-03-30 13:48:00,
2013-03-30 10:03:00,55.3,48.0,30.25,ESE,105,3.0,4.0,76,0.00,,,0.00,weatherlink.com 1.10,2013-03-30 14:03:00,
2013-03-30 10:18:00,55.3,49.0,30.25,East,86,1.0,5.0,78,0.00,,,0.00,weatherlink.com 1.10,2013-03-30 14:18:00,
2013-03-30 10:33:00,55.5,49.0,30.24,ENE,72,3.0,5.0,78,0.00,,,0.00,weatherlink.com 1.10,2013-03-30 14:33:00,
2013-03-30 10:48:00,56.0,49.0,30.24,ESE,108,4.0,7.0,76,0.00,,,0.00,weatherlink.com 1.10,2013-03-30 14:48:00,
2013-03-30 11:03:00,56.6,47.0,30.24,East,79,5.0,11.0,71,0.00,,,0.00,weatherlink.com 1.10,2013-03-30 15:03:00,
2013-03-30 11:18:00,56.7,47.0,30.24,ENE,66,7.0,11.0,69,0.00,,,0.00,weatherlink.com 1.10,2013-03-30 15:18:00,
2013-03-30 11:33:00,56.7,48.0,30.24,East,101,3.0,5.0,73,0.00,,,0.00,weatherlink.com 1.10,2013-03-30 15:33:00,
2013-03-30 11:49:00,57.5,49.0,30.23,East,98,8.0,12.0,73,0.00,,,0.00,weatherlink.com 1.10,2013-03-30 15:49:00,
2013-03-30 12:04:00,58.5,50.0,30.24,NE,48,5.0,8.0,73,0.00,,,0.00,weatherlink.com 1.10,2013-03-30 16:04:00,
2013-03-30 12:19:00,57.9,49.0,30.23,NNE,29,4.0,12.0,73,0.00,,,0.00,weatherlink.com 1.10,2013-03-30 16:19:00,
2013-03-30 12:34:00,58.0,49.0,30.23,East,87,8.0,13.0,73,0.00,,,0.00,weatherlink.com 1.10,2013-03-30 16:34:00,
2013-03-30 12:49:00,58.3,49.0,30.22,South,190,0.0,7.0,72,0.00,,,0.00,weatherlink.com 1.10,2013-03-30 16:49:00,
2013-03-30 13:04:00,59.2,50.0,30.21,East,82,4.0,13.0,71,0.00,,,0.00,weatherlink.com 1.10,2013-03-30 17:04:00,
2013-03-30 13:19:00,58.2,50.0,30.20,ENE,63,6.0,12.0,73,0.00,,,0.00,weatherlink.com 1.10,2013-03-30 17:19:00,
2013-03-30 13:34:00,58.8,51.0,30.20,ENE,67,2.0,9.0,75,0.00,,,0.00,weatherlink.com 1.10,2013-03-30 17:34:00,
2013-03-30 13:49:00,58.4,51.0,30.20,East,91,10.0,14.0,75,0.00,,,0.00,weatherlink.com 1.10,2013-03-30 17:49:00,
2013-03-30 14:04:00,57.3,51.0,30.18,SE,139,4.0,13.0,78,0.00,,,0.00,weatherlink.com 1.10,2013-03-30 18:04:00,
2013-03-30 14:19:00,59.6,52.0,30.18,ENE,78,3.0,11.0,77,0.00,,,0.00,weatherlink.com 1.10,2013-03-30 18:19:00,
2013-03-30 14:34:00,59.3,52.0,30.17,ESE,121,2.0,12.0,77,0.00,,,0.00,weatherlink.com 1.10,2013-03-30 18:34:00,
2013-03-30 14:49:00,60.0,53.0,30.16,ENE,69,5.0,11.0,77,0.00,,,0.00,weatherlink.com 1.10,2013-03-30 18:49:00,
2013-03-30 15:04:00,60.3,53.0,30.16,NE,34,6.0,11.0,77,0.00,,,0.00,weatherlink.com 1.10,2013-03-30 19:04:00,
2013-03-30 15:19:00,60.5,53.0,30.15,ENE,68,7.0,9.0,77,0.00,,,0.00,weatherlink.com 1.10,2013-03-30 19:19:00,
2013-03-30 15:34:00,61.4,53.0,30.14,ENE,77,6.0,8.0,75,0.00,,,0.00,weatherlink.com 1.10,2013-03-30 19:34:00,
2013-03-30 15:49:00,61.6,52.0,30.14,ENE,60,3.0,8.0,72,0.00,,,0.00,weatherlink.com 1.10,2013-03-30 19:49:00,
2013-03-30 16:04:00,62.0,53.0,30.13,ENE,75,4.0,8.0,72,0.00,,,0.00,weatherlink.com 1.10,2013-03-30 20:04:00,
2013-03-30 16:19:00,63.5,53.0,30.13,ENE,75,5.0,8.0,68,0.00,,,0.00,weatherlink.com 1.10,2013-03-30 20:19:00,
2013-03-30 16:34:00,62.2,53.0,30.12,ENE,66,5.0,7.0,72,0.00,,,0.00,weatherlink.com 1.10,2013-03-30 20:34:00,
2013-03-30 16:49:00,62.1,53.0,30.12,NE,51,1.0,7.0,71,0.00,,,0.00,weatherlink.com 1.10,2013-03-30 20:49:00,
2013-03-30 17:04:00,62.0,52.0,30.11,East,80,6.0,7.0,71,0.00,,,0.00,weatherlink.com 1.10,2013-03-30 21:04:00,
2013-03-30 17:19:00,62.5,53.0,30.11,ENE,77,9.0,9.0,70,0.00,,,0.00,weatherlink.com 1.10,2013-03-30 21:19:00,
2013-03-30 17:34:00,62.8,52.0,30.11,ENE,63,2.0,4.0,69,0.00,,,0.00,weatherlink.com 1.10,2013-03-30 21:34:00,
2013-03-30 17:49:00,62.5,53.0,30.11,NNE,27,2.0,4.0,70,0.00,,,0.00,weatherlink.com 1.10,2013-03-30 21:49:00,
2013-03-30 18:04:00,61.4,52.0,30.11,ENE,70,3.0,3.0,72,0.00,,,0.00,weatherlink.com 1.10,2013-03-30 22:04:00,
2013-03-30 18:19:00,60.2,52.0,30.12,East,86,1.0,5.0,75,0.00,,,0.00,weatherlink.com 1.10,2013-03-30 22:19:00,
2013-03-30 18:34:00,59.5,52.0,30.12,ENE,70,2.0,4.0,77,0.00,,,0.00,weatherlink.com 1.10,2013-03-30 22:34:00,
2013-03-30 18:49:00,58.7,52.0,30.12,East,84,3.0,3.0,79,0.00,,,0.00,weatherlink.com 1.10,2013-03-30 22:49:00,
2013-03-30 19:04:00,57.9,52.0,30.12,East,81,0.0,1.0,81,0.00,,,0.00,weatherlink.com 1.10,2013-03-30 23:04:00,
2013-03-30 19:19:00,57.0,52.0,30.12,East,99,0.0,3.0,83,0.00,,,0.00,weatherlink.com 1.10,2013-03-30 23:19:00,
2013-03-30 19:34:00,55.9,52.0,30.12,SSW,198,0.0,1.0,85,0.00,,,0.00,weatherlink.com 1.10,2013-03-30 23:34:00,
2013-03-30 19:49:00,54.7,51.0,30.12,SSW,193,0.0,1.0,87,0.00,,,0.00,weatherlink.com 1.10,2013-03-30 23:49:00,
2013-03-30 20:04:00,53.5,50.0,30.12,SSW,193,0.0,0.0,88,0.00,,,0.00,weatherlink.com 1.10,2013-03-31 00:04:00,
2013-03-30 20:19:00,52.7,50.0,30.13,SSW,193,0.0,1.0,90,0.00,,,0.00,weatherlink.com 1.10,2013-03-31 00:19:00,
2013-03-30 20:34:00,51.8,49.0,30.12,SSW,193,0.0,0.0,90,0.00,,,0.00,weatherlink.com 1.10,2013-03-31 00:34:00,
2013-03-30 20:49:00,51.4,48.0,30.13,SSW,193,0.0,1.0,89,0.00,,,0.00,weatherlink.com 1.10,2013-03-31 00:49:00,
2013-03-30 21:04:00,51.5,48.0,30.13,SSW,197,0.0,0.0,88,0.00,,,0.00,weatherlink.com 1.10,2013-03-31 01:04:00,
2013-03-30 21:19:00,51.4,47.0,30.13,SSW,197,0.0,0.0,85,0.00,,,0.00,weatherlink.com 1.10,2013-03-31 01:19:00,
2013-03-30 21:34:00,51.0,47.0,30.14,SSW,197,0.0,0.0,85,0.00,,,0.00,weatherlink.com 1.10,2013-03-31 01:34:00,
2013-03-30 21:49:00,50.3,46.0,30.14,SSW,197,0.0,0.0,86,0.00,,,0.00,weatherlink.com 1.10,2013-03-31 01:49:00,
2013-03-30 22:04:00,49.6,46.0,30.14,SSW,197,0.0,0.0,88,0.00,,,0.00,weatherlink.com 1.10,2013-03-31 02:04:00,
2013-03-30 22:19:00,49.1,46.0,30.14,SSW,197,0.0,1.0,89,0.00,,,0.00,weatherlink.com 1.10,2013-03-31 02:19:00,
2013-03-30 22:34:00,48.6,46.0,30.14,SSW,197,0.0,0.0,90,0.00,,,0.00,weatherlink.com 1.10,2013-03-31 02:34:00,
2013-03-30 22:49:00,47.9,46.0,30.14,SSW,198,0.0,0.0,91,0.00,,,0.00,weatherlink.com 1.10,2013-03-31 02:49:00,
2013-03-30 23:04:00,47.3,45.0,30.13,SSW,197,0.0,0.0,92,0.00,,,0.00,weatherlink.com 1.10,2013-03-31 03:04:00,
2013-03-30 23:19:00,47.1,45.0,30.13,SSW,197,0.0,0.0,93,0.00,,,0.00,weatherlink.com 1.10,2013-03-31 03:19:00,
2013-03-30 23:34:00,47.3,45.0,30.13,SSW,197,0.0,0.0,93,0.00,,,0.00,weatherlink.com 1.10,2013-03-31 03:34:00,
2013-03-30 23:49:00,47.6,46.0,30.12,SSW,197,0.0,0.0,94,0.00,,,0.00,weatherlink.com 1.10,2013-03-31 03:49:00,